Airfield :
LOGIN :

Register | Disclaimer

   EN    FR    IT 

 










Legend :    VFR   Marginal VFR   IFR   Intensive IFR   Very Intensive IFR
Visi :
Ceiling :
>= 8 km
>= 3000ft
5 to 8 km
1000 to 3000 ft
1500m to 5 km
500 to 1000 ft
800 to 1500m
200 to 500 ft
< 800m
< 200 ft
Symbols :   Thunderstorms  Fog  Heavy snow  Heavy precipitations  Wind > 20 kt
SIGMETs :     Misc.  Thunderstorms  Icing  Turbulence  Mountain Waves  Volcanic Ashes






- Airport Elevation : 505 ft
- IATA code : SXB


LFST - Strasbourg

CURRENT METAR :
  • 160900Z AUTO 21003KT 4100 BR OVC021 M04/M05 Q1029 TEMPO 1200 BR OVC003

EXPIRED METARs :
  • 160830Z AUTO VRB01KT 4100 BR FEW005 OVC022 M05/M06 Q1029 TEMPO 1200 BR OVC003
  • 160800Z AUTO 00000KT 4300 BR FEW004 OVC022 M06/M06 Q1029 TEMPO 1200 BR OVC003
  • 160730Z AUTO 00000KT 5000 UP BR FEW004 OVC022 M06/M07 Q1029 TEMPO 1200 BR OVC003
  • 160700Z AUTO VRB01KT 5000 BR FEW004 OVC022 M06/M07 Q1028 TEMPO 1200 BR VV///
  • 160630Z AUTO 24002KT 6000 FEW004 OVC022 M06/M07 Q1029 TEMPO 0300 FZFG VV///
  • 160600Z AUTO 00000KT 5000 BR FEW003 OVC022 M07/M08 Q1029 TEMPO 0300 FZFG VV///

TAF AMD TAF LFST
Valid from the 16 at 06:00 until the 17 at 06:00 UTC


160635Z 1606/1706 21004KT 6000 FEW005 BKN020
TEMPO 1606/1612 1200 BR OVC003
PROB30
TEMPO 1606/1608 0300 FZFG VV///
BECMG 1618/1620 3000 -SN
TEMPO 1620/1702 1000 SN OVC003
BECMG 1702/1704 8000 NSW
PROB30
TEMPO 1704/1706 -FZRA
PROB40
TEMPO 1704/1706 2000 -SNRA



MET'MAP, your aeronautical weather chart ! - Copyright ORBIFLY December 2007 - Disclaimer

ORBIFLY MET'MAP TEAM :

Programming & Development : Alexandra Zaïnal
Concept & original design : Baudouin d'Aumeries
Assistance for programming : Marc-Olivier Méhu
Technical & hardware support : Manuel Goepfert

Contact : metmap@orbifly.com




SOURCES & CREDITS :

   NOAA